Time;durP1;ratioP1;P1;durP2;ratioP2;P2;SDS_P1;SDS_P2;PMS_P1;PMS_P2;Temp;Humidity;BMP_temperature;BMP_pressure;BME280_temperature;BME280_humidity;BME280_pressure;Samples;Min_cycle;Max_cycle;Signal;HPM_P1;HPM_P2
2023/05/29 00:02:13;;;;;;;199.30;81.90;;;;;;;;;;5095566;28;20484;-84
2023/05/29 00:04:40;;;;;;;196.10;82.07;;;;;;;;;;5095278;28;20455;-84
2023/05/29 00:07:07;;;;;;;202.37;85.60;;;;;;;;;;5095204;28;20453;-83
2023/05/29 00:09:35;;;;;;;187.90;78.93;;;;;;;;;;5095585;28;20802;-87
2023/05/29 00:12:02;;;;;;;224.00;106.67;;;;;;;;;;5094097;28;20963;-89
2023/05/29 00:14:29;;;;;;;101.03;59.10;;;;;;;;;;5095338;28;20461;-82
2023/05/29 00:16:57;;;;;;;197.67;81.37;;;;;;;;;;5095364;28;20526;-84
2023/05/29 00:19:24;;;;;;;204.30;83.40;;;;;;;;;;5094743;28;20448;-84
2023/05/29 00:21:51;;;;;;;186.57;85.33;;;;;;;;;;5095175;28;20456;-82
2023/05/29 00:24:20;;;;;;;162.40;93.87;;;;;;;;;;5095488;28;20449;-83
2023/05/29 00:26:48;;;;;;;9.20;4.40;;;;;;;;;;5095315;28;20445;-85
2023/05/29 00:29:15;;;;;;;8.70;4.90;;;;;;;;;;5094484;28;20537;-83
2023/05/29 00:31:42;;;;;;;7.07;4.50;;;;;;;;;;5097300;27;20453;-82
2023/05/29 00:34:09;;;;;;;24.23;17.23;;;;;;;;;;5094657;28;20449;-82
2023/05/29 00:36:36;;;;;;;5.60;3.87;;;;;;;;;;5095218;28;20453;-82
2023/05/29 00:39:04;;;;;;;6.53;3.37;;;;;;;;;;5095215;28;20479;-82
2023/05/29 00:41:31;;;;;;;5.10;3.73;;;;;;;;;;5094742;28;20477;-84
2023/05/29 00:43:59;;;;;;;6.40;4.27;;;;;;;;;;5093510;28;20492;-85
2023/05/29 00:46:27;;;;;;;8.80;4.27;;;;;;;;;;5094939;28;20453;-82
2023/05/29 00:48:54;;;;;;;9.93;4.47;;;;;;;;;;5094006;28;20456;-82
2023/05/29 00:51:22;;;;;;;6.90;5.03;;;;;;;;;;5094814;28;20837;-83
2023/05/29 00:53:51;;;;;;;7.10;3.93;;;11.90;99.90;;;;;;5094701;28;20811;-85
2023/05/29 00:56:18;;;;;;;34.43;30.83;;;;;;;;;;5095012;28;20456;-83
2023/05/29 00:58:45;;;;;;;6.10;4.63;;;;;;;;;;5093489;28;20468;-84
2023/05/29 01:01:13;;;;;;;5.40;4.00;;;;;;;;;;5094839;28;20445;-82
2023/05/29 01:03:41;;;;;;;19.47;17.27;;;;;;;;;;5094673;28;20489;-87
2023/05/29 01:06:10;;;;;;;22.83;16.57;;;;;;;;;;5093415;28;20490;-87
2023/05/29 01:08:37;;;;;;;6.20;3.80;;;;;;;;;;5094966;28;20453;-86
2023/05/29 01:11:13;;;;;;;5.07;3.90;;;11.50;99.90;;;;;;5094608;28;20456;-86
2023/05/29 01:13:45;;;;;;;8.43;4.30;;;11.50;99.90;;;;;;5093206;28;20476;-83
2023/05/29 01:16:21;;;;;;;11.77;4.40;;;11.40;99.90;;;;;;5094414;28;20437;-87
2023/05/29 01:19:02;;;;;;;8.27;6.03;;;;;;;;;;5092924;28;20856;-87
2023/05/29 01:21:43;;;;;;;7.30;6.10;;;11.40;99.90;;;;;;5094468;28;20455;-86
2023/05/29 01:24:18;;;;;;;6.13;4.43;;;11.30;99.90;;;;;;5094098;28;20492;-83
2023/05/29 01:26:52;;;;;;;7.93;5.47;;;;;;;;;;5094428;28;20452;-82
2023/05/29 01:29:21;;;;;;;13.50;11.13;;;11.30;99.90;;;;;;5094050;28;20497;-86
2023/05/29 01:31:48;;;;;;;6.23;4.83;;;11.20;99.90;;;;;;5094196;28;20449;-83
2023/05/29 01:34:16;;;;;;;25.30;22.90;;;;;;;;;;5094249;28;20461;-87
2023/05/29 01:36:43;;;;;;;150.43;67.73;;;;;;;;;;5095738;27;20448;-83
2023/05/29 01:39:10;;;;;;;196.13;79.20;;;;;;;;;;5094280;28;20415;-87
2023/05/29 01:41:37;;;;;;;201.50;80.67;;;;;;;;;;5093846;28;20544;-85
2023/05/29 01:44:08;;;;;;;195.03;80.23;;;;;;;;;;5092731;28;20492;-83
2023/05/29 01:46:36;;;;;;;191.17;79.07;;;;;;;;;;5093939;28;20449;-83
2023/05/29 01:49:03;;;;;;;197.10;79.93;;;;;;;;;;5094022;28;20535;-85
2023/05/29 01:51:31;;;;;;;193.20;82.10;;;;;;;;;;5093902;28;21068;-83
2023/05/29 01:53:59;;;;;;;196.67;80.10;;;;;;;;;;5094069;28;20504;-85
2023/05/29 01:56:27;;;;;;;195.53;80.50;;;;;;;;;;5093795;28;20489;-83
2023/05/29 01:58:54;;;;;;;197.90;81.47;;;;;;;;;;5092470;28;20505;-83
2023/05/29 02:01:22;;;;;;;200.50;84.57;;;;;;;;;;5093736;28;20452;-85
2023/05/29 02:03:50;;;;;;;191.40;83.53;;;;;;;;;;5093752;28;20894;-82
2023/05/29 02:06:18;;;;;;;165.30;73.13;;;;;;;;;;5093614;28;20488;-85
2023/05/29 02:08:45;;;;;;;190.63;77.77;;;;;;;;;;5093706;28;20816;-83
2023/05/29 02:11:12;;;;;;;192.70;78.50;;;;;;;;;;5093630;28;20928;-86
2023/05/29 02:13:39;;;;;;;190.87;80.00;;;;;;;;;;5092326;28;20951;-83
2023/05/29 02:16:06;;;;;;;154.70;70.53;;;;;;;;;;5093422;28;20448;-83
2023/05/29 02:18:35;;;;;;;186.80;81.50;;;;;;;;;;5093647;28;20449;-87
2023/05/29 02:21:03;;;;;;;191.17;79.20;;;;;;;;;;5093403;28;20995;-86
2023/05/29 02:23:30;;;;;;;180.83;77.27;;;;;;;;;;5093297;28;20536;-83
2023/05/29 02:25:57;;;;;;;152.83;69.97;;;;;;;;;;5093358;28;20467;-83
2023/05/29 02:28:24;;;;;;;141.70;69.67;;;;;;;;;;5092144;28;20932;-83
2023/05/29 02:30:52;;;;;;;189.97;80.90;;;;;;;;;;5093304;28;20449;-83
2023/05/29 02:33:19;;;;;;;189.67;84.00;;;;;;;;;;5092804;28;20940;-87
2023/05/29 02:35:48;;;;;;;144.70;67.00;;;;;;;;;;5093241;28;20499;-83
2023/05/29 02:38:15;;;;;;;199.10;86.40;;;;;;;;;;5093354;28;20453;-83
2023/05/29 02:40:42;;;;;;;190.53;82.60;;;;;;;;;;5095586;28;20446;-83
2023/05/29 02:43:10;;;;;;;190.27;84.57;;;;;;;;;;5090371;28;20830;-87
2023/05/29 02:45:37;;;;;;;177.77;76.17;;;;;;;;;;5092870;28;20423;-86
2023/05/29 02:48:04;;;;;;;179.80;75.27;;;;;;;;;;5093290;28;20445;-83
2023/05/29 02:50:31;;;;;;;180.97;76.30;;;;;;;;;;5095693;28;20460;-83
2023/05/29 02:52:59;;;;;;;193.90;85.57;;;;;;;;;;5092982;28;20448;-83
2023/05/29 02:55:26;;;;;;;173.67;108.57;;;;;;;;;;5093037;28;20947;-83
2023/05/29 02:57:55;;;;;;;189.80;79.17;;;;;;;;;;5091783;28;20423;-84
2023/05/29 03:00:22;;;;;;;188.60;79.67;;;;;;;;;;5093088;28;20459;-85
2023/05/29 03:02:49;;;;;;;189.67;78.60;;;;;;;;;;5092872;28;20512;-83
2023/05/29 03:05:17;;;;;;;188.20;78.27;;;;;;;;;;5092904;28;20449;-83
2023/05/29 03:07:44;;;;;;;186.47;78.30;;;;;;;;;;5092899;28;20449;-85
2023/05/29 03:10:17;;;;;;;184.93;77.90;;;;;;;;;;5092656;28;20430;-84
2023/05/29 03:12:44;;;;;;;195.80;82.43;;;;;;;;;;5091802;28;20484;-86
2023/05/29 03:15:12;;;;;;;177.50;121.63;;;;;;;;;;5090774;28;20488;-86
2023/05/29 03:17:39;;;;;;;184.23;76.37;;;;;;;;;;5092901;28;20427;-83
2023/05/29 03:20:07;;;;;;;175.30;74.53;;;;;;;;;;5092963;28;20476;-85
2023/05/29 03:22:34;;;;;;;183.80;79.40;;;;;;;;;;5092698;28;20480;-83
2023/05/29 03:25:03;;;;;;;181.63;76.90;;;;;;;;;;5092716;28;20537;-83
2023/05/29 03:27:31;;;;;;;168.57;74.30;;;;;;;;;;5091425;28;20967;-86
2023/05/29 03:29:59;;;;;;;166.30;72.83;;;;;;;;;;5095991;28;20449;-86
2023/05/29 03:32:26;;;;;;;184.97;78.17;;;;;;;;;;5096674;28;20826;-84
2023/05/29 03:34:53;;;;;;;187.33;77.00;;;;;;;;;;5096625;28;20948;-86
2023/05/29 03:37:20;;;;;;;195.37;78.80;;;;;;;;;;5096350;28;20806;-87
2023/05/29 03:39:47;;;;;;;191.87;81.30;;;;;;;;;;5096415;28;20444;-85
2023/05/29 03:42:15;;;;;;;186.00;78.03;;;;;;;;;;5095226;28;20476;-86
2023/05/29 03:44:43;;;;;;;186.80;80.67;;;;;;;;;;5096356;28;20545;-85
2023/05/29 03:47:10;;;;;;;187.60;78.43;;;;;;;;;;5096257;28;20464;-87
2023/05/29 03:49:37;;;;;;;144.40;88.40;;;;;;;;;;5093780;28;20444;-83
2023/05/29 03:52:05;;;;;;;181.07;79.30;;;;;;;;;;5096238;28;20451;-86
2023/05/29 03:54:32;;;;;;;148.90;84.80;;;;;;;;;;5096109;28;20464;-83
2023/05/29 03:56:59;;;;;;;171.00;82.20;;;;;;;;;;5094852;28;20446;-83
2023/05/29 03:59:26;;;;;;;133.97;121.63;;;;;;;;;;5096352;28;20419;-87
2023/05/29 04:01:54;;;;;;;187.30;100.50;;;;;;;;;;5096128;28;20815;-83
